createdAt,value
2018-12-17T00:04:50.708Z,100826.23
2018-12-17T00:10:04.418Z,100823.72
2018-12-17T00:15:17.523Z,100818.11
2018-12-17T00:20:28.515Z,100799.28
2018-12-17T00:25:40.668Z,100794.58
2018-12-17T00:30:51.919Z,100789.02
2018-12-17T00:36:04.445Z,100788.98
2018-12-17T00:41:15.416Z,100786.86
2018-12-17T00:46:27.864Z,100793.25
2018-12-17T00:51:39.108Z,100787.27
2018-12-17T00:56:53.488Z,100784.70
2018-12-17T01:02:05.430Z,100784.70
2018-12-17T01:07:18.520Z,100783.82
2018-12-17T01:12:30.521Z,100782.98
2018-12-17T01:17:41.732Z,100781.28
2018-12-17T01:22:53.668Z,100783.44
2018-12-17T01:28:04.830Z,100780.86
2018-12-17T01:33:17.061Z,100785.56
2018-12-17T01:38:28.019Z,100793.27
2018-12-17T01:43:40.016Z,100809.95
2018-12-17T01:48:50.929Z,100798.42
2018-12-17T01:51:20.299Z,100790.69
2018-12-17T01:56:34.402Z,100786.40
2018-12-17T02:01:45.653Z,100794.95
2018-12-17T02:06:58.139Z,100786.41
2018-12-17T02:12:10.181Z,100791.14
2018-12-17T02:17:21.367Z,100793.72
2018-12-17T02:22:33.559Z,100794.55
2018-12-17T02:27:44.840Z,100798.02
2018-12-17T02:32:57.049Z,100801.84
2018-12-17T02:38:08.238Z,100804.00
2018-12-17T02:43:20.225Z,100805.73
2018-12-17T02:48:31.184Z,100810.44
2018-12-17T02:53:43.312Z,100819.45
2018-12-17T02:58:54.383Z,100815.59
2018-12-17T03:04:06.531Z,100819.91
2018-12-17T03:09:17.601Z,100822.05
2018-12-17T03:14:29.621Z,100819.91
2018-12-17T03:19:40.691Z,100819.47
2018-12-17T03:24:52.665Z,100824.62
2018-12-17T03:30:05.766Z,100824.60
2018-12-17T03:35:18.141Z,100823.34
2018-12-17T03:40:29.125Z,100824.19
2018-12-17T03:45:41.115Z,100832.77
2018-12-17T03:50:52.203Z,100824.61
2018-12-17T03:56:04.269Z,100832.33
2018-12-17T04:01:16.298Z,100830.63
2018-12-17T04:03:45.700Z,100829.32
2018-12-17T04:08:56.656Z,100834.06
2018-12-17T04:14:09.889Z,100835.34
2018-12-17T04:19:20.868Z,100835.34
2018-12-17T04:24:34.780Z,100842.64
2018-12-17T04:29:45.825Z,100830.64
2018-12-17T04:34:57.823Z,100836.17
2018-12-17T04:40:09.485Z,100843.06
2018-12-17T04:45:21.562Z,100846.05
2018-12-17T04:50:32.725Z,100850.34
2018-12-17T04:53:02.432Z,100853.75
2018-12-17T04:58:14.448Z,100858.91
2018-12-17T05:03:26.820Z,100865.78
2018-12-17T05:08:37.838Z,100866.21
2018-12-17T05:13:49.817Z,100864.52
2018-12-17T05:19:01.347Z,100856.78
2018-12-17T05:24:14.348Z,100877.36
2018-12-17T05:29:25.454Z,100879.55
2018-12-17T05:34:37.777Z,100870.09
2018-12-17T05:39:49.231Z,100881.69
2018-12-17T05:44:57.951Z,100891.12
2018-12-17T05:50:09.399Z,100888.98
2018-12-17T05:55:23.413Z,100899.69
2018-12-17T06:00:34.314Z,100907.42
2018-12-17T06:05:46.523Z,100910.43
2018-12-17T06:10:57.572Z,100907.02
2018-12-17T06:16:09.654Z,100921.16
2018-12-17T06:21:17.108Z,100916.85
2018-12-17T06:26:29.216Z,100921.57
2018-12-17T06:31:36.616Z,100919.01
2018-12-17T06:34:06.035Z,100934.03
2018-12-17T06:39:17.029Z,100922.45
2018-12-17T06:44:28.947Z,100935.33
2018-12-17T06:49:41.273Z,100942.61
2018-12-17T06:54:56.483Z,100937.48
2018-12-17T07:00:08.191Z,100956.77
2018-12-17T07:05:20.449Z,100960.20
2018-12-17T07:10:32.081Z,100978.67
2018-12-17T07:15:44.915Z,100987.27
2018-12-17T07:20:58.609Z,100989.84
2018-12-17T07:26:10.914Z,100989.84
2018-12-17T07:31:22.078Z,101000.14
2018-12-17T07:36:34.131Z,101008.71
2018-12-17T07:41:46.492Z,101003.14
2018-12-17T07:46:58.613Z,101019.02
2018-12-17T07:52:09.630Z,101019.87
2018-12-17T07:57:20.621Z,101022.03
2018-12-17T08:02:34.809Z,101015.59
2018-12-17T08:07:47.949Z,101034.48
2018-12-17T08:13:00.183Z,101032.34
2018-12-17T08:18:23.374Z,101040.09
2018-12-17T08:23:35.763Z,101048.67
2018-12-17T08:28:46.898Z,101059.83
2018-12-17T08:33:58.923Z,101064.13
2018-12-17T08:39:10.110Z,101069.27
2018-12-17T08:44:22.222Z,101076.15
2018-12-17T08:49:33.328Z,101089.48
2018-12-17T08:54:45.796Z,101080.87
2018-12-17T08:59:57.815Z,101101.06
2018-12-17T09:05:11.105Z,101098.05
2018-12-17T09:10:22.117Z,101107.95
2018-12-17T09:15:34.108Z,101113.53
2018-12-17T09:20:45.137Z,101125.14
2018-12-17T09:25:57.405Z,101126.41
2018-12-17T09:31:08.437Z,101130.73
2018-12-17T09:36:20.706Z,101138.91
2018-12-17T09:41:32.959Z,101145.76
2018-12-17T09:46:45.226Z,101145.75
2018-12-17T09:51:56.465Z,101153.52
2018-12-17T09:54:25.876Z,101160.42
2018-12-17T09:59:36.996Z,101168.14
2018-12-17T10:04:49.854Z,101162.55
2018-12-17T10:10:01.376Z,101157.77
2018-12-17T10:15:13.835Z,101153.45
2018-12-17T10:20:25.024Z,101154.72
2018-12-17T10:25:37.155Z,101154.27
2018-12-17T10:30:48.235Z,101155.59
2018-12-17T10:36:00.561Z,101160.30
2018-12-17T10:41:13.568Z,101168.45
2018-12-17T10:46:27.174Z,101160.28
2018-12-17T10:51:40.148Z,101171.41
2018-12-17T10:56:52.483Z,101170.08
2018-12-17T11:02:15.701Z,101171.27
2018-12-17T11:07:31.293Z,101162.02
2018-12-17T11:12:46.665Z,101177.39
2018-12-17T11:17:57.868Z,101166.27
2018-12-17T11:23:11.404Z,101180.55
2018-12-17T11:28:23.847Z,101181.84
2018-12-17T11:33:36.543Z,101183.56
2018-12-17T11:38:49.018Z,101184.44
2018-12-17T11:44:01.263Z,101186.60
2018-12-17T11:49:13.386Z,101194.48
2018-12-17T11:54:27.321Z,101196.23
2018-12-17T11:58:09.788Z,101206.55
2018-12-17T12:03:23.984Z,101205.28
2018-12-17T12:08:37.356Z,101202.69
2018-12-17T12:13:50.519Z,101198.78
2018-12-17T12:19:02.001Z,101206.56
2018-12-17T12:24:15.173Z,101213.48
2018-12-17T12:29:26.382Z,101215.64
2018-12-17T12:34:38.803Z,101213.92
2018-12-17T12:39:50.223Z,101226.42
2018-12-17T12:45:03.216Z,101225.56
2018-12-17T12:50:15.348Z,101237.19
2018-12-17T12:55:29.108Z,101245.40
2018-12-17T13:00:40.722Z,101264.00
2018-12-17T13:05:53.548Z,101266.19
2018-12-17T13:11:06.023Z,101271.80
2018-12-17T13:16:18.736Z,101284.31
2018-12-17T13:21:30.081Z,101281.34
2018-12-17T13:26:42.523Z,101289.54
2018-12-17T13:31:54.033Z,101294.31
2018-12-17T13:37:06.663Z,101300.33
2018-12-17T13:42:19.121Z,101294.33
2018-12-17T13:47:30.535Z,101309.41
2018-12-17T13:52:55.935Z,101323.19
2018-12-17T13:58:07.441Z,101327.53
2018-12-17T14:03:19.696Z,101321.94
2018-12-17T14:08:30.676Z,101329.67
2018-12-17T14:13:42.970Z,101329.69
2018-12-17T14:19:14.126Z,101336.54
2018-12-17T14:21:48.764Z,101339.52
2018-12-17T14:32:43.434Z,101369.22
2018-12-17T14:38:04.702Z,101384.30
2018-12-17T14:40:34.175Z,101398.12
2018-12-17T14:45:46.219Z,101408.05
2018-12-17T14:50:57.418Z,101415.80
2018-12-17T14:56:09.284Z,101414.47
2018-12-17T15:01:21.253Z,101413.17
2018-12-17T15:06:35.342Z,101424.78
2018-12-17T15:11:49.003Z,101435.92
2018-12-17T15:17:01.171Z,101452.34
2018-12-17T15:22:13.960Z,101454.06
2018-12-17T15:27:24.889Z,101454.51
2018-12-17T15:32:37.139Z,101467.89
2018-12-17T15:37:48.575Z,101479.94
2018-12-17T15:43:00.713Z,101495.92
2018-12-17T15:48:12.632Z,101505.00
2018-12-17T15:50:41.961Z,101511.02
2018-12-17T15:53:11.423Z,101521.37
2018-12-17T15:58:22.846Z,101532.61
2018-12-17T16:03:34.847Z,101546.42
2018-12-17T16:08:45.801Z,101560.64
2018-12-17T16:11:46.610Z,101561.92
2018-12-17T16:14:16.046Z,101569.72
2018-12-17T16:19:27.091Z,101570.16
2018-12-17T16:24:39.098Z,101577.48
2018-12-17T16:29:50.096Z,101581.36
2018-12-17T16:35:02.211Z,101588.72
2018-12-17T16:40:13.369Z,101587.44
2018-12-17T16:42:42.962Z,101591.73
2018-12-17T16:47:54.747Z,101596.48
2018-12-17T16:53:06.676Z,101599.09
2018-12-17T16:58:17.611Z,101608.13
2018-12-17T17:03:29.672Z,101606.41
2018-12-17T17:08:40.558Z,101613.73
2018-12-17T17:11:09.977Z,101620.63
2018-12-17T17:16:22.387Z,101618.48
2018-12-17T17:21:34.334Z,101620.61
2018-12-17T17:26:46.255Z,101614.97
2018-12-17T17:31:57.253Z,101631.78
2018-12-17T17:37:09.435Z,101625.73
2018-12-17T17:42:27.865Z,101635.17
2018-12-17T17:47:40.841Z,101639.03
2018-12-17T17:50:10.376Z,101642.03
2018-12-17T17:55:24.311Z,101647.20
2018-12-17T18:00:36.036Z,101659.27
2018-12-17T18:05:48.653Z,101663.97
2018-12-17T18:11:00.119Z,101685.92
2018-12-17T18:16:12.422Z,101690.66
2018-12-17T18:21:23.378Z,101687.66
2018-12-17T18:26:35.243Z,101698.39
2018-12-17T18:31:46.303Z,101713.05
2018-12-17T18:36:58.693Z,101712.63
2018-12-17T18:42:09.593Z,101714.76
2018-12-17T18:47:25.789Z,101721.27
2018-12-17T18:52:34.728Z,101722.11
2018-12-17T18:57:45.946Z,101722.51
2018-12-17T19:02:58.082Z,101734.06
2018-12-17T19:08:09.997Z,101748.23
2018-12-17T19:13:27.277Z,101749.61
2018-12-17T19:18:38.094Z,101760.42
2018-12-17T19:21:07.493Z,101759.97
2018-12-17T19:26:18.123Z,101769.94
2018-12-17T19:31:26.185Z,101776.81
2018-12-17T19:36:38.256Z,101772.94
2018-12-17T19:41:51.083Z,101783.28
2018-12-17T19:47:03.329Z,101785.86
2018-12-17T19:52:14.327Z,101788.84
2018-12-17T19:57:25.434Z,101790.94
2018-12-17T20:02:37.671Z,101788.00
2018-12-17T20:07:49.606Z,101794.03
2018-12-17T20:13:08.748Z,101790.97
2018-12-17T20:18:21.745Z,101806.05
2018-12-17T20:23:33.986Z,101814.25
2018-12-17T20:28:45.429Z,101818.61
2018-12-17T20:33:59.765Z,101827.62
2018-12-17T20:39:11.177Z,101831.95
2018-12-17T20:44:23.313Z,101836.24
2018-12-17T20:49:34.524Z,101838.38
2018-12-17T20:52:04.090Z,101836.66
2018-12-17T20:57:22.572Z,101839.67
2018-12-17T21:02:34.545Z,101839.59
2018-12-17T21:07:46.271Z,101844.34
2018-12-17T21:10:15.781Z,101849.97
2018-12-17T21:15:27.874Z,101853.39
2018-12-17T21:20:38.818Z,101853.81
2018-12-17T21:25:50.927Z,101856.39
2018-12-17T21:31:02.041Z,101858.11
2018-12-17T21:36:14.158Z,101850.81
2018-12-17T21:41:25.158Z,101849.45
2018-12-17T21:46:37.162Z,101853.32
2018-12-17T21:51:48.160Z,101856.39
2018-12-17T21:57:00.411Z,101852.87
2018-12-17T22:02:11.279Z,101863.20
2018-12-17T22:07:22.177Z,101872.62
2018-12-17T22:12:34.070Z,101881.20
2018-12-17T22:17:41.719Z,101882.95
2018-12-17T22:22:54.961Z,101894.11
2018-12-17T22:28:06.024Z,101896.69
2018-12-17T22:33:19.930Z,101895.52
2018-12-17T22:38:30.980Z,101903.27
2018-12-17T22:43:42.907Z,101897.65
2018-12-17T22:48:54.005Z,101905.02
2018-12-17T22:54:06.075Z,101910.19
2018-12-17T22:59:17.131Z,101914.02
2018-12-17T23:04:28.975Z,101916.68
2018-12-17T23:09:57.125Z,101908.48
2018-12-17T23:12:43.347Z,101910.26
2018-12-17T23:18:09.846Z,101899.92
2018-12-17T23:23:23.198Z,101900.80
2018-12-17T23:28:35.106Z,101896.51
2018-12-17T23:33:47.372Z,101890.05
2018-12-17T23:38:58.345Z,101887.92
2018-12-17T23:44:10.437Z,101887.05
2018-12-17T23:49:21.294Z,101882.27
2018-12-17T23:54:33.469Z,101886.14
2018-12-17T23:59:44.512Z,101886.09
